createdAt,value
2022-10-22T00:00:00.222Z,7.6
2022-10-22T00:05:00.188Z,8.0
2022-10-22T00:10:02.189Z,9.1
2022-10-22T00:15:00.178Z,4.1
2022-10-22T00:20:00.179Z,6.4
2022-10-22T00:25:00.165Z,5.7
2022-10-22T00:30:00.191Z,7.2
2022-10-22T00:35:00.185Z,5.2
2022-10-22T00:40:00.198Z,9.0
2022-10-22T00:45:00.175Z,5.8
2022-10-22T00:50:00.263Z,6.4
2022-10-22T00:55:00.205Z,10.9
2022-10-22T01:00:00.288Z,8.8
2022-10-22T01:05:00.170Z,6.7
2022-10-22T01:10:00.187Z,9.1
2022-10-22T01:15:00.175Z,10.1
2022-10-22T01:20:00.193Z,8.3
2022-10-22T01:25:00.173Z,9.2
2022-10-22T01:30:00.182Z,9.3
2022-10-22T01:35:00.170Z,8.1
2022-10-22T01:40:00.176Z,6.3
2022-10-22T01:45:00.172Z,8.6
2022-10-22T01:50:00.171Z,8.9
2022-10-22T01:55:00.180Z,8.0
2022-10-22T02:00:00.192Z,8.4
2022-10-22T02:05:00.173Z,9.5
2022-10-22T02:10:00.171Z,6.3
2022-10-22T02:15:00.188Z,6.3
2022-10-22T02:20:00.173Z,7.6
2022-10-22T02:25:00.166Z,12.1
2022-10-22T02:30:00.190Z,8.0
2022-10-22T02:35:00.172Z,12.0
2022-10-22T02:40:00.165Z,7.9
2022-10-22T02:45:00.171Z,9.7
2022-10-22T02:50:00.192Z,8.0
2022-10-22T02:55:00.171Z,10.5
2022-10-22T03:00:00.264Z,8.2
2022-10-22T03:05:00.191Z,10.5
2022-10-22T03:10:00.204Z,11.0
2022-10-22T03:15:00.196Z,7.5
2022-10-22T03:20:00.191Z,9.4
2022-10-22T03:25:00.200Z,8.4
2022-10-22T03:30:00.237Z,14.0
2022-10-22T03:40:00.198Z,8.9
2022-10-22T03:45:00.179Z,10.9
2022-10-22T03:50:00.195Z,9.5
2022-10-22T03:55:00.215Z,11.1
2022-10-22T04:00:00.239Z,9.3
2022-10-22T04:05:00.318Z,12.6
2022-10-22T04:10:00.217Z,9.5
2022-10-22T04:15:00.200Z,11.6
2022-10-22T04:20:00.202Z,10.6
2022-10-22T04:25:00.292Z,12.3
2022-10-22T04:30:00.233Z,12.4
2022-10-22T04:35:00.199Z,11.3
2022-10-22T04:40:00.208Z,10.7
2022-10-22T04:45:00.193Z,11.0
2022-10-22T04:50:00.219Z,12.5
2022-10-22T04:55:00.197Z,11.0
2022-10-22T05:00:00.254Z,14.3
2022-10-22T05:05:00.180Z,9.9
2022-10-22T05:10:00.195Z,12.7
2022-10-22T05:15:00.217Z,10.4
2022-10-22T05:20:00.215Z,9.7
2022-10-22T05:25:00.211Z,10.3
2022-10-22T05:30:00.219Z,9.6
2022-10-22T05:35:00.217Z,9.2
2022-10-22T05:40:12.455Z,9.4
2022-10-22T05:45:00.186Z,9.9
2022-10-22T05:50:00.206Z,11.2
2022-10-22T05:55:00.236Z,10.7
2022-10-22T06:00:00.262Z,10.7
2022-10-22T06:05:00.202Z,11.2
2022-10-22T06:10:00.195Z,14.8
2022-10-22T06:15:00.240Z,7.5
2022-10-22T06:20:00.340Z,9.2
2022-10-22T06:25:00.233Z,12.2
2022-10-22T06:30:00.225Z,10.0
2022-10-22T06:35:00.218Z,12.4
2022-10-22T06:40:00.225Z,11.8
2022-10-22T06:50:00.211Z,8.6
2022-10-22T06:55:00.226Z,10.1
2022-10-22T07:00:00.224Z,13.9
2022-10-22T07:05:00.221Z,11.1
2022-10-22T07:10:00.214Z,10.7
2022-10-22T07:15:00.211Z,11.4
2022-10-22T07:20:00.221Z,10.0
2022-10-22T07:25:05.156Z,16.6
2022-10-22T07:30:00.214Z,9.9
2022-10-22T07:35:00.203Z,10.7
2022-10-22T07:40:03.706Z,9.1
2022-10-22T07:45:00.199Z,9.6
2022-10-22T07:50:00.205Z,12.6
2022-10-22T07:55:00.208Z,9.4
2022-10-22T08:00:00.257Z,8.9
2022-10-22T08:05:01.492Z,11.6
2022-10-22T08:10:00.201Z,9.0
2022-10-22T08:15:00.236Z,11.4
2022-10-22T08:20:00.230Z,10.4
2022-10-22T08:25:00.197Z,8.5
2022-10-22T08:35:00.225Z,8.1
2022-10-22T08:40:00.216Z,14.4
2022-10-22T08:45:00.237Z,11.0
2022-10-22T08:50:00.199Z,14.5
2022-10-22T08:55:00.213Z,10.4
2022-10-22T09:00:00.300Z,8.6
2022-10-22T09:05:00.222Z,14.3
2022-10-22T09:10:00.297Z,11.4
2022-10-22T09:15:00.264Z,11.4
2022-10-22T09:20:00.219Z,8.6
2022-10-22T09:25:00.212Z,10.0
2022-10-22T09:30:00.216Z,13.6
2022-10-22T09:35:00.201Z,8.3
2022-10-22T09:40:00.207Z,11.5
2022-10-22T09:45:00.198Z,8.0
2022-10-22T09:50:00.251Z,10.6
2022-10-22T09:55:00.202Z,12.2
2022-10-22T10:00:00.234Z,14.4
2022-10-22T10:05:00.220Z,8.2
2022-10-22T10:10:00.215Z,7.9
2022-10-22T10:15:00.201Z,11.0
2022-10-22T10:20:03.689Z,7.4
2022-10-22T10:25:00.236Z,10.1
2022-10-22T10:30:00.241Z,9.5
2022-10-22T10:35:00.214Z,9.0
2022-10-22T10:40:00.236Z,11.0
2022-10-22T10:45:00.238Z,9.7
2022-10-22T10:50:00.223Z,8.7
2022-10-22T10:55:00.208Z,8.8
2022-10-22T11:00:00.315Z,10.4
2022-10-22T11:05:00.225Z,8.7
2022-10-22T11:10:00.212Z,12.0
2022-10-22T11:15:00.201Z,9.0
2022-10-22T11:20:00.540Z,9.3
2022-10-22T11:25:00.210Z,11.0
2022-10-22T11:30:00.218Z,10.3
2022-10-22T11:35:00.200Z,6.8
2022-10-22T11:40:00.210Z,6.3
2022-10-22T11:45:00.319Z,9.7
2022-10-22T11:50:00.219Z,9.9
2022-10-22T11:55:00.212Z,11.2
2022-10-22T12:00:00.261Z,8.0
2022-10-22T12:05:00.208Z,12.6
2022-10-22T12:10:00.303Z,8.0
2022-10-22T12:15:01.422Z,9.1
2022-10-22T12:20:02.209Z,7.8
2022-10-22T12:25:00.226Z,5.4
2022-10-22T12:30:00.214Z,8.7
2022-10-22T12:35:00.264Z,8.1
2022-10-22T12:40:00.202Z,7.7
2022-10-22T12:45:00.229Z,9.2
2022-10-22T12:50:00.220Z,7.1
2022-10-22T12:55:00.190Z,6.8
2022-10-22T13:05:00.193Z,8.8
2022-10-22T13:10:00.215Z,8.4
2022-10-22T13:15:00.201Z,8.7
2022-10-22T13:20:00.228Z,9.5
2022-10-22T13:25:00.351Z,11.2
2022-10-22T13:30:00.252Z,9.6
2022-10-22T13:35:00.202Z,7.7
2022-10-22T13:40:00.255Z,9.2
2022-10-22T13:45:00.222Z,9.9
2022-10-22T13:50:00.398Z,9.1
2022-10-22T13:55:00.226Z,11.6
2022-10-22T14:00:00.328Z,13.4
2022-10-22T14:05:00.221Z,10.1
2022-10-22T14:10:00.215Z,10.1
2022-10-22T14:15:00.416Z,13.9
2022-10-22T14:20:00.226Z,12.4
2022-10-22T14:30:00.251Z,10.3
2022-10-22T14:35:00.227Z,8.3
2022-10-22T14:40:00.272Z,10.5
2022-10-22T14:45:00.206Z,10.9
2022-10-22T14:50:00.335Z,8.2
2022-10-22T14:55:00.236Z,12.1
2022-10-22T15:00:00.433Z,11.6
2022-10-22T15:05:00.352Z,11.5
2022-10-22T15:10:00.333Z,12.1
2022-10-22T15:15:00.236Z,10.0
2022-10-22T15:20:00.228Z,10.6
2022-10-22T15:25:00.213Z,7.8
2022-10-22T15:30:00.430Z,12.6
2022-10-22T15:35:00.212Z,8.9
2022-10-22T15:40:00.233Z,8.6
2022-10-22T15:45:00.243Z,14.2
2022-10-22T15:50:00.216Z,11.1
2022-10-22T15:55:00.290Z,14.0
2022-10-22T16:00:00.234Z,12.9
2022-10-22T16:05:00.434Z,14.3
2022-10-22T16:10:00.243Z,10.9
2022-10-22T16:15:00.206Z,12.3
2022-10-22T16:20:00.345Z,10.2
2022-10-22T16:25:00.219Z,14.4
2022-10-22T16:30:00.215Z,11.6
2022-10-22T16:35:00.204Z,12.7
2022-10-22T16:40:03.118Z,16.8
2022-10-22T16:45:00.208Z,15.0
2022-10-22T16:50:00.207Z,13.8
2022-10-22T16:55:00.217Z,19.1
2022-10-22T17:00:00.236Z,19.9
2022-10-22T17:05:00.207Z,19.3
2022-10-22T17:10:00.209Z,15.8
2022-10-22T17:15:00.213Z,14.4
2022-10-22T17:20:00.230Z,13.0
2022-10-22T17:25:00.215Z,19.2
2022-10-22T17:30:00.220Z,21.0
2022-10-22T17:35:00.216Z,18.5
2022-10-22T17:40:00.203Z,25.2
2022-10-22T17:45:00.244Z,43.6
2022-10-22T17:50:00.215Z,49.7
2022-10-22T17:55:00.203Z,58.4
2022-10-22T18:00:00.214Z,50.6
2022-10-22T18:05:00.236Z,54.9
2022-10-22T18:10:00.240Z,50.2
2022-10-22T18:15:00.214Z,70.8
2022-10-22T18:20:00.219Z,56.5
2022-10-22T18:25:00.233Z,36.1
2022-10-22T18:30:00.215Z,36.6
2022-10-22T18:35:00.199Z,29.3
2022-10-22T18:40:00.207Z,23.6
2022-10-22T18:45:00.227Z,28.5
2022-10-22T18:50:00.192Z,30.1
2022-10-22T18:55:00.208Z,31.7
2022-10-22T19:00:00.223Z,26.9
2022-10-22T19:05:00.211Z,22.1
2022-10-22T19:10:00.209Z,24.4
2022-10-22T19:15:00.205Z,21.9
2022-10-22T19:20:00.207Z,25.6
2022-10-22T19:25:00.211Z,23.2
2022-10-22T19:30:00.209Z,19.1
2022-10-22T19:35:00.241Z,23.7
2022-10-22T19:40:00.208Z,22.4
2022-10-22T19:45:00.229Z,21.1
2022-10-22T19:50:00.210Z,27.5
2022-10-22T19:55:00.221Z,18.9
2022-10-22T20:00:00.252Z,25.7
2022-10-22T20:05:00.200Z,19.6
2022-10-22T20:10:00.216Z,21.7
2022-10-22T20:15:00.189Z,24.5
2022-10-22T20:20:00.205Z,0.0
2022-10-22T20:25:00.201Z,23.6
2022-10-22T20:30:00.210Z,27.6
2022-10-22T20:35:00.259Z,25.0
2022-10-22T20:40:00.254Z,24.4
2022-10-22T20:45:00.185Z,23.6
2022-10-22T20:50:00.197Z,29.5
2022-10-22T20:55:00.209Z,24.2
2022-10-22T21:00:00.217Z,25.0
2022-10-22T21:05:00.183Z,26.1
2022-10-22T21:10:00.205Z,39.6
2022-10-22T21:15:00.200Z,37.7
2022-10-22T21:20:00.333Z,33.9
2022-10-22T21:25:00.217Z,28.5
2022-10-22T21:30:00.233Z,22.9
2022-10-22T21:35:00.200Z,0.0
2022-10-22T21:40:00.198Z,22.9
2022-10-22T21:45:00.286Z,19.0
2022-10-22T21:50:00.196Z,22.8
2022-10-22T21:55:00.182Z,19.5
2022-10-22T22:00:00.214Z,21.8
2022-10-22T22:05:00.218Z,17.5
2022-10-22T22:10:00.205Z,21.7
2022-10-22T22:15:00.189Z,22.0
2022-10-22T22:20:00.190Z,23.0
2022-10-22T22:25:00.199Z,20.6
2022-10-22T22:30:00.191Z,15.1
2022-10-22T22:35:00.196Z,18.5
2022-10-22T22:40:00.180Z,16.4
2022-10-22T22:45:00.194Z,19.8
2022-10-22T22:50:00.201Z,19.6
2022-10-22T22:55:00.215Z,18.0
2022-10-22T23:00:00.191Z,14.7
2022-10-22T23:05:00.199Z,18.9
2022-10-22T23:10:00.275Z,16.8
2022-10-22T23:15:00.196Z,20.6
2022-10-22T23:20:00.188Z,14.6
2022-10-22T23:25:00.212Z,20.7
2022-10-22T23:30:00.205Z,19.9
2022-10-22T23:35:00.183Z,17.5
2022-10-22T23:40:00.199Z,22.3
2022-10-22T23:45:00.173Z,17.5
2022-10-22T23:50:00.202Z,18.9
2022-10-22T23:55:00.188Z,0.0
